Raleigh, NC (27601)

3:22 PM EST on February 22, 2017 (GMT -0500)
Five Points East | | Change Station

Elev 301 ft 35.80 °N, 78.64 °W | Updated 1 minute ago

Overcast
Overcast
70.7 °F
Feels Like 76 °F
N
1.2
Wind Variable Wind from SW
Gusts 3.1 mph

Today
High -- | Low -- °F
--% Chance of Precip.
Yesterday
High -- | Low -- °F
Precip. -- in
Pressure 29.93 in
Visibility 10.0 miles
Clouds Few 4200 ft
Few 7000 ft
Scattered Clouds 10000 ft
Mostly Cloudy 20000 ft
Overcast 25000 ft
Heat Index 76 °F
Dew Point 55 °F
Humidity 57%
Rainfall 0.00 in
Snow Depth Not available.
6:53 AM 6:03 PM
Waning Crescent, 15% visible
METAR KRDU 221951Z 00000KT 10SM FEW042 FEW070 SCT100 BKN200 OVC250 21/10 A2994 RMK AO2 SLP135 T02110100
Pressure 29.93 in
Visibility 10.0 miles
Clouds Few 4200 ft
Few 7000 ft
Scattered Clouds 10000 ft
Mostly Cloudy 20000 ft
Overcast 25000 ft
Heat Index 76 °F
Dew Point 55 °F
Humidity 57%
Rainfall 0.00 in
Snow Depth Not available.
6:53 AM 6:03 PM
Waning Crescent, 15% visible
METAR KRDU 221951Z 00000KT 10SM FEW042 FEW070 SCT100 BKN200 OVC250 21/10 A2994 RMK AO2 SLP135 T02110100

Get Your Daily Forecast Email!

Thanks for signing up!

Be on the lookout for a verification email in your inbox.

You'll start receiving the daily forecast at 8 AM.

×

10-Day Weather Forecast

Almanac

Astronomy

Feb. 22, 2017 Rise Set
Actual Time
Civil Twilight
Nautical Twilight
Astronomical Twilight
Moon
Length of Visible Light
Length of Day
Tomorrow will be .
, % of the Moon is Illuminated

Today's Extremes

State Highs State Lows

Community

WunderPhotos

Upload Photos

1,962,540 photos uploaded!

WunderBlog® & News

Nearby

Air Quality

  Air Quality AQ Index Pollutant
Not available.

Snow Depth

Station Depth Elevation

Earthquake Activity

City Distance Mag. Time & Date
Minimum magnitude displayed is 2.5.

Coastal Water Temperatures

Place Temperature

Stations

Nearby Weather Stations

Station Location Temp. Windchill Dew Point Humidity Wind Precip. Elev Updated Type
                   

Watches & Warnings

There are currently no watches in effect.